Decoded Metar for LEBL (BARCELONA in SPAIN) (IATA:BCN) | Meteo·Mobile Aviation Weather
aviador You're here:

LEBL Decoded Metar

BARCELONA in SPAIN
Report Time2019-10-18 13:00:00
UTC Time2019-10-18 13:16:26
Flight Rules vfr VFR
Wind220° at 06 kt
W.Decomp.*RWY 20: 5.6 kt HW 2.1 kt RCW
RWY 25: 5.2 kt HW 3 kt LCW
Visibility9999 m
Phenomena:N/A
Clouds:Few 030 Hf
Expected CloudBase > 2,800 ft AGL from Temp-Dew spread
CeilingNone
Temp23°C (ISA +8)
Dew Point16°C (65% RH)
AAT22.8°C
QNH1014 hPa
Density Alt1,165 ft
Elevation20 ft
Report Wrong Elevation
Raw Report
LEBL 181300Z 22006KT 190V250 9999 FEW030 23/16 Q1014 NOSIG=

Extra information for LEBL:More info

Metar Taf Metar & Taf Last 4 Metars F.Rules Stats Wind Profile Meteogram Temp Stats Airport Information Weather charts Add Link Nearby VenuesMetar ALERT Operation Metar Decoded Social comments